Time;durP1;ratioP1;P1;durP2;ratioP2;P2;SDS_P1;SDS_P2;PMS_P1;PMS_P2;Temp;Humidity;BMP_temperature;BMP_pressure;BME280_temperature;BME280_humidity;BME280_pressure;Samples;Min_cycle;Max_cycle;Signal;HPM_P1;HPM_P2
2024/04/16 00:01:05;;;;;;;0.00;0.00;;;;;;;6.49;75.87;99433.19;16761954;26;20008;-49
2024/04/16 00:08:42;;;;;;;1.23;0.30;;;;;;;6.78;74.80;99434.41;16788903;26;20007;-49
2024/04/16 00:16:19;;;;;;;0.00;0.00;;;;;;;6.76;74.36;99430.31;16791185;26;20031;-48
2024/04/16 00:23:59;;;;;;;0.10;0.10;;;;;;;6.27;75.74;99435.38;16790285;26;20015;-48
2024/04/16 00:31:37;;;;;;;0.00;0.00;;;;;;;6.79;73.24;99432.56;16790175;26;20000;-50
2024/04/16 00:39:15;;;;;;;0.00;0.00;;;;;;;6.62;73.43;99421.59;16753634;26;20032;-51
2024/04/16 00:47:01;;;;;;;0.10;0.10;;;;;;;6.33;73.25;99423.03;16775701;26;20388;-51
2024/04/16 00:54:40;;;;;;;0.50;0.50;;;;;;;6.50;72.08;99442.81;16758949;26;20080;-49
2024/04/16 01:02:19;;;;;;;0.00;0.00;;;;;;;6.65;71.60;99445.16;16764191;26;20015;-48
2024/04/16 01:09:57;;;;;;;0.00;0.00;;;;;;;6.70;71.10;99440.00;16800550;26;20452;-49
2024/04/16 01:17:37;;;;;;;0.10;0.10;;;;;;;6.69;70.63;99458.88;16799307;26;20514;-51
2024/04/16 01:25:15;;;;;;;0.00;0.00;;;;;;;6.20;71.17;99453.25;16771022;26;20019;-54
2024/04/16 01:32:50;;;;;;;0.17;0.10;;;;;;;6.29;70.89;99445.81;16798297;26;20337;-50
2024/04/16 01:40:30;;;;;;;0.28;0.25;;;;;;;5.63;71.30;99441.56;16778746;26;19999;-50
2024/04/16 01:48:08;;;;;;;0.00;0.00;;;;;;;5.67;71.13;99452.63;16766467;26;20004;-48
2024/04/16 01:55:48;;;;;;;0.00;0.00;;;;;;;5.84;70.80;99459.13;16740536;26;20424;-52
2024/04/16 02:03:23;;;;;;;0.05;0.05;;;;;;;5.93;70.15;99463.22;16796242;26;19995;-50
2024/04/16 02:11:01;;;;;;;0.00;0.00;;;;;;;5.91;69.62;99465.22;16796392;26;20015;-48
2024/04/16 02:18:37;;;;;;;0.00;0.00;;;;;;;5.84;69.50;99459.94;16751235;26;20003;-51
2024/04/16 02:26:16;;;;;;;0.00;0.00;;;;;;;5.70;70.07;99458.34;16770993;26;20000;-49
2024/04/16 02:33:51;;;;;;;0.00;0.00;;;;;;;5.48;70.56;99460.47;16760102;26;20011;-47
2024/04/16 02:41:29;;;;;;;7.47;0.85;;;;;;;5.30;71.00;99466.41;16686896;26;20044;-51
2024/04/16 02:49:05;;;;;;;0.00;0.00;;;;;;;5.21;70.61;99448.22;16761343;26;19999;-52
2024/04/16 02:56:43;;;;;;;0.00;0.00;;;;;;;5.36;69.62;99435.50;16796214;26;20015;-50
2024/04/16 03:04:20;;;;;;;0.00;0.00;;;;;;;5.36;69.93;99440.81;16795283;26;20365;-47
2024/04/16 03:11:59;;;;;;;0.00;0.00;;;;;;;5.16;71.11;99424.09;16799557;26;19999;-49
2024/04/16 03:19:34;;;;;;;0.00;0.00;;;;;;;5.18;71.17;99422.06;16800264;26;20015;-51
2024/04/16 03:27:11;;;;;;;4.63;2.65;;;;;;;4.97;71.96;99415.13;16795634;26;20079;-47
2024/04/16 03:34:48;;;;;;;0.00;0.00;;;;;;;5.18;71.91;99427.38;16753594;26;20401;-50
2024/04/16 03:42:27;;;;;;;0.00;0.00;;;;;;;5.15;72.40;99425.13;16760808;26;20010;-49
2024/04/16 03:50:03;;;;;;;0.00;0.00;;;;;;;5.20;73.23;99422.66;16777053;26;20246;-50
2024/04/16 03:57:40;;;;;;;0.00;0.00;;;;;;;5.31;71.47;99433.47;16792453;26;20000;-52
2024/04/16 04:05:15;;;;;;;0.00;0.00;;;;;;;5.40;71.59;99438.56;16791532;26;20010;-52
2024/04/16 04:12:53;;;;;;;0.10;0.10;;;;;;;5.73;70.91;99435.81;16791831;26;19996;-52
2024/04/16 04:20:28;;;;;;;0.80;0.55;;;;;;;5.77;70.56;99437.84;16788752;26;20043;-48
2024/04/16 04:28:06;;;;;;;0.00;0.00;;;;;;;5.91;70.67;99425.28;16788922;26;20429;-52
2024/04/16 04:35:41;;;;;;;0.30;0.30;;;;;;;5.92;70.05;99423.47;16773182;26;20014;-53
2024/04/16 04:43:21;;;;;;;0.00;0.00;;;;;;;6.16;70.56;99432.59;16769485;26;20003;-49
2024/04/16 04:51:14;;;;;;;0.57;0.57;;;;;;;5.67;74.25;99394.06;16784392;26;20217;-50
2024/04/16 04:58:58;;;;;;;0.00;0.00;;;;;;;6.03;76.50;99428.13;16798935;26;20003;-50
2024/04/16 05:06:37;;;;;;;0.00;0.00;;;;;;;5.96;76.94;99441.47;16799721;26;20445;-50
2024/04/16 05:14:25;;;;;;;0.30;0.30;;;;;;;5.87;77.55;99446.22;16799883;26;20436;-50
2024/04/16 05:22:03;;;;;;;0.00;0.00;;;;;;;6.38;75.75;99442.66;16800279;26;20044;-50
2024/04/16 05:29:41;;;;;;;0.00;0.00;;;;;;;6.03;76.12;99425.47;16800091;26;20011;-55
2024/04/16 05:37:16;;;;;;;0.00;0.00;;;;;;;7.14;74.47;99428.34;16780652;26;20018;-56
2024/04/16 05:44:56;;;;;;;0.80;0.80;;;;;;;6.77;73.52;99427.44;16799357;26;19999;-49
2024/04/16 05:52:31;;;;;;;0.00;0.00;;;;;;;6.22;75.65;99426.41;16755469;26;20007;-50
2024/04/16 06:00:10;;;;;;;0.17;0.17;;;;;;;5.98;77.51;99436.75;16798758;26;20004;-48
2024/04/16 06:07:47;;;;;;;0.00;0.00;;;;;;;5.88;78.11;99425.72;16769646;26;20000;-51
2024/04/16 06:15:25;;;;;;;0.10;0.10;;;;;;;6.07;79.44;99422.16;16770557;26;19999;-50
2024/04/16 06:23:00;;;;;;;0.00;0.00;;;;;;;6.11;79.00;99412.72;16791413;26;20001;-53
2024/04/16 06:30:39;;;;;;;0.00;0.00;;;;;;;6.26;77.83;99412.44;16763564;26;20075;-51
2024/04/16 06:38:15;;;;;;;0.13;0.13;;;;;;;6.22;77.50;99415.75;16781476;26;20919;-53
2024/04/16 06:45:59;;;;;;;0.00;0.00;;;;;;;6.64;76.89;99407.03;16784331;26;20000;-50
2024/04/16 06:53:34;;;;;;;0.00;0.00;;;;;;;6.50;77.40;99424.16;16787800;26;20000;-51
2024/04/16 07:01:12;;;;;;;0.15;0.15;;;;;;;6.29;76.97;99427.97;16795387;26;20004;-51
2024/04/16 07:08:50;;;;;;;1.25;0.38;;;;;;;6.59;74.83;99428.19;16796439;26;20014;-52
2024/04/16 07:16:29;;;;;;;0.10;0.10;;;;;;;6.89;75.94;99417.69;16767747;26;20338;-50
2024/04/16 07:24:05;;;;;;;0.13;0.13;;;;;;;7.04;73.97;99429.88;16764964;26;20076;-52
2024/04/16 07:31:43;;;;;;;0.00;0.00;;;;;;;6.83;74.43;99436.41;16764719;26;20036;-49
2024/04/16 07:39:19;;;;;;;0.05;0.05;;;;;;;7.34;72.89;99446.00;16738970;26;20075;-51
2024/04/16 07:47:00;;;;;;;0.10;0.10;;;;;;;6.94;73.23;99465.03;16766907;26;20003;-49
2024/04/16 07:54:35;;;;;;;0.60;0.38;;;;;;;7.19;72.29;99465.03;16733108;26;20032;-49
2024/04/16 08:02:15;;;;;;;0.25;0.25;;;;;;;6.58;75.66;99479.06;16793845;26;20434;-49
2024/04/16 08:09:51;;;;;;;0.00;0.00;;;;;;;6.59;75.01;99483.38;16796902;26;20018;-50
2024/04/16 08:17:28;;;;;;;0.00;0.00;;;;;;;7.06;74.88;99489.16;16803855;26;20069;-51
2024/04/16 08:25:04;;;;;;;0.00;0.00;;;;;;;7.54;72.95;99497.34;16775860;26;20327;-52
2024/04/16 08:32:42;;;;;;;0.00;0.00;;;;;;;8.09;70.96;99494.69;16803583;26;20015;-53
2024/04/16 08:40:18;;;;;;;0.00;0.00;;;;;;;8.04;70.13;99486.53;16785080;26;20342;-52
2024/04/16 08:47:59;;;;;;;0.00;0.00;;;;;;;8.66;66.14;99497.03;16789182;26;20075;-49
2024/04/16 08:55:37;;;;;;;0.00;0.00;;;;;;;8.91;64.84;99492.34;16801525;26;20003;-54
2024/04/16 09:03:18;;;;;;;0.63;0.63;;;;;;;9.34;61.63;99503.78;16801227;26;19999;-49
2024/04/16 09:10:54;;;;;;;0.00;0.00;;;;;;;9.42;61.65;99512.31;16802065;26;19999;-52
2024/04/16 09:18:34;;;;;;;2.75;1.27;;;;;;;9.84;59.21;99508.63;16797335;21;20084;-49
2024/04/16 09:26:14;;;;;;;0.00;0.00;;;;;;;10.21;55.80;99509.13;16747027;26;20310;-48
2024/04/16 09:33:52;;;;;;;0.00;0.00;;;;;;;9.02;59.10;99522.03;16683492;26;20016;-48
2024/04/16 09:41:33;;;;;;;0.00;0.00;;;;;;;8.92;60.73;99528.75;16673281;26;20028;-49
2024/04/16 09:49:11;;;;;;;0.00;0.00;;;;;;;8.76;62.39;99528.56;16684758;26;20004;-47
2024/04/16 09:56:49;;;;;;;0.88;0.88;;;;;;;9.41;57.31;99525.91;16684628;26;20004;-48
2024/04/16 10:04:29;;;;;;;0.00;0.00;;;;;;;10.52;58.08;99515.94;16685001;26;20000;-48
2024/04/16 10:12:05;;;;;;;0.00;0.00;;;;;;;10.06;56.08;99514.19;16684193;26;20080;-52
2024/04/16 10:19:42;;;;;;;0.00;0.00;;;;;;;9.79;54.64;99516.56;16681449;26;19996;-45
2024/04/16 10:27:18;;;;;;;0.00;0.00;;;;;;;9.76;54.08;99515.19;16670529;26;20052;-48
2024/04/16 10:35:02;;;;;;;0.10;0.10;;;;;;;11.01;54.23;99510.91;16678776;26;20015;-46
2024/04/16 10:42:39;;;;;;;0.00;0.00;;;;;;;11.04;50.97;99517.66;16683157;26;20059;-51
2024/04/16 10:50:16;;;;;;;1.30;0.47;;;;;;;10.55;51.70;99515.47;16683661;26;20072;-50
2024/04/16 10:57:52;;;;;;;2.30;1.25;;;;;;;10.04;50.84;99517.13;16681708;26;20447;-48
2024/04/16 11:05:30;;;;;;;0.17;0.13;;;;;;;10.12;51.14;99513.28;16682290;26;19996;-46
2024/04/16 11:13:07;;;;;;;0.30;0.30;;;;;;;9.51;53.43;99519.97;16682015;26;20028;-47
2024/04/16 11:20:45;;;;;;;0.00;0.00;;;;;;;9.65;54.27;99519.53;16679927;26;20069;-47
2024/04/16 11:28:20;;;;;;;0.00;0.00;;;;;;;9.41;57.73;99532.06;16680617;26;20073;-46
2024/04/16 11:35:58;;;;;;;0.00;0.00;;;;;;;9.91;56.59;99512.81;16676597;26;20549;-48
2024/04/16 11:43:35;;;;;;;0.00;0.00;;;;;;;10.39;53.43;99529.63;16635539;26;20284;-48
2024/04/16 11:51:14;;;;;;;0.00;0.00;;;;;;;9.81;53.33;99522.53;16681544;26;20462;-48
2024/04/16 11:58:51;;;;;;;0.00;0.00;;;;;;;10.52;51.93;99518.63;16679209;26;19996;-53
2024/04/16 12:06:30;;;;;;;0.00;0.00;;;;;;;10.25;52.01;99504.16;16678636;26;20008;-49
2024/04/16 12:14:06;;;;;;;0.00;0.00;;;;;;;10.43;51.83;99530.78;16678040;26;20001;-50
2024/04/16 12:21:43;;;;;;;0.00;0.00;;;;;;;9.18;60.97;99556.16;16675879;26;20073;-48
2024/04/16 12:29:19;;;;;;;0.00;0.00;;;;;;;8.10;68.85;99548.94;16645966;26;20094;-47
2024/04/16 12:36:57;;;;;;;0.57;0.22;;;;;;;8.22;69.32;99555.19;16671504;26;20015;-46
2024/04/16 12:44:32;;;;;;;2.28;0.50;;;;;;;8.70;68.17;99541.00;16676864;26;20015;-49
2024/04/16 12:52:10;;;;;;;0.00;0.00;;;;;;;8.77;63.78;99533.72;16677382;26;20004;-45
2024/04/16 12:59:45;;;;;;;0.10;0.10;;;;;;;9.54;64.13;99504.25;16683851;26;20000;-50
2024/04/16 13:07:24;;;;;;;0.00;0.00;;;;;;;10.72;58.44;99527.06;16687173;26;20048;-52
2024/04/16 13:14:59;;;;;;;0.00;0.00;;;;;;;11.41;56.93;99512.63;16687378;26;20442;-49
2024/04/16 13:22:37;;;;;;;0.00;0.00;;;;;;;10.60;53.38;99518.25;16689945;26;20004;-46
2024/04/16 13:30:13;;;;;;;0.00;0.00;;;;;;;10.59;52.07;99519.31;16675575;26;20012;-48
2024/04/16 13:37:52;;;;;;;0.10;0.10;;;;;;;10.42;52.36;99521.94;16686899;26;20463;-48
2024/04/16 13:45:27;;;;;;;0.00;0.00;;;;;;;11.31;51.29;99512.47;16687664;26;20080;-46
2024/04/16 13:53:05;;;;;;;0.10;0.10;;;;;;;11.42;49.93;99501.63;16688443;26;20431;-50
2024/04/16 14:00:42;;;;;;;0.00;0.00;;;;;;;11.24;50.55;99510.75;16688417;26;20077;-49
2024/04/16 14:08:20;;;;;;;0.00;0.00;;;;;;;11.28;48.70;99515.63;16690351;26;20361;-47
2024/04/16 14:15:58;;;;;;;0.00;0.00;;;;;;;11.46;53.01;99528.81;16684117;26;20004;-49
2024/04/16 14:23:38;;;;;;;0.00;0.00;;;;;;;11.31;53.46;99518.66;16685466;26;20004;-49
2024/04/16 14:31:14;;;;;;;0.00;0.00;;;;;;;11.46;52.91;99526.13;16682950;26;20465;-53
2024/04/16 14:38:52;;;;;;;0.20;0.20;;;;;;;11.72;54.28;99525.44;16672863;26;20366;-47
2024/04/16 14:46:29;;;;;;;0.00;0.00;;;;;;;11.61;55.08;99517.47;16688028;26;20015;-46
2024/04/16 14:54:07;;;;;;;0.05;0.03;;;;;;;11.62;53.27;99519.13;16689623;26;20019;-48
2024/04/16 15:01:42;;;;;;;0.00;0.00;;;;;;;12.08;54.22;99517.88;16688217;26;19996;-48
2024/04/16 15:09:20;;;;;;;0.00;0.00;;;;;;;11.97;52.90;99524.19;16691017;26;20099;-45
2024/04/16 15:16:55;;;;;;;0.00;0.00;;;;;;;12.46;50.36;99519.69;16712698;21;20473;-49
2024/04/16 15:24:34;;;;;;;0.00;0.00;;;;;;;12.12;51.58;99537.81;16799299;26;20012;-52
2024/04/16 15:32:11;;;;;;;0.00;0.00;;;;;;;12.03;50.14;99530.44;16703783;26;20019;-49
2024/04/16 15:39:50;;;;;;;0.45;0.30;;;;;;;12.18;47.63;99534.16;16678728;26;20077;-50
2024/04/16 15:47:26;;;;;;;0.00;0.00;;;;;;;11.57;48.97;99540.53;16676809;26;20071;-49
2024/04/16 15:55:05;;;;;;;0.00;0.00;;;;;;;11.41;50.00;99544.84;16690622;26;20434;-51
2024/04/16 16:02:42;;;;;;;0.00;0.00;;;;;;;11.33;51.87;99551.47;16690306;26;20069;-52
2024/04/16 16:10:21;;;;;;;0.00;0.00;;;;;;;11.38;52.18;99558.78;16688941;26;20004;-49
2024/04/16 16:17:56;;;;;;;0.10;0.10;;;;;;;10.50;55.07;99568.22;16690097;26;20105;-51
2024/04/16 16:25:34;;;;;;;0.00;0.00;;;;;;;10.53;56.35;99576.59;16668559;26;19996;-51
2024/04/16 16:33:09;;;;;;;0.03;0.03;;;;;;;10.33;59.52;99594.97;16686759;26;20011;-50
2024/04/16 16:40:48;;;;;;;0.00;0.00;;;;;;;10.11;59.04;99602.78;16690083;26;20475;-49
2024/04/16 16:48:23;;;;;;;0.10;0.10;;;;;;;10.21;57.97;99603.84;16674825;26;19997;-50
2024/04/16 16:56:02;;;;;;;0.05;0.05;;;;;;;9.83;59.09;99606.16;16690340;26;20454;-49
2024/04/16 17:03:37;;;;;;;0.00;0.00;;;;;;;9.68;61.47;99622.72;16672693;26;19997;-51
2024/04/16 17:11:15;;;;;;;0.00;0.00;;;;;;;9.14;65.92;99629.94;16687147;26;20004;-50
2024/04/16 17:18:50;;;;;;;0.00;0.00;;;;;;;8.85;64.77;99639.59;16689346;26;19996;-53
2024/04/16 17:26:28;;;;;;;0.00;0.00;;;;;;;8.42;66.92;99632.50;16654785;26;20000;-53
2024/04/16 17:34:03;;;;;;;0.00;0.00;;;;;;;8.51;67.46;99655.25;16629610;26;20452;-56
2024/04/16 17:41:43;;;;;;;0.10;0.10;;;;;;;8.38;68.54;99666.88;16621461;26;20001;-52
2024/04/16 17:49:21;;;;;;;0.00;0.00;;;;;;;8.61;69.64;99671.56;16602587;26;20008;-51
2024/04/16 17:57:00;;;;;;;0.00;0.00;;;;;;;8.95;68.53;99685.34;16557902;26;20001;-52
2024/04/16 18:04:37;;;;;;;0.20;0.10;;;;;;;8.74;70.08;99702.72;16656736;26;20000;-56
2024/04/16 18:12:17;;;;;;;0.00;0.00;;;;;;;8.74;70.46;99713.41;16661300;26;20044;-52
2024/04/16 18:19:52;;;;;;;0.00;0.00;;;;;;;9.05;69.82;99733.03;16662083;26;20000;-52
2024/04/16 18:27:33;;;;;;;0.00;0.00;;;;;;;8.44;70.00;99748.09;16679369;26;20007;-53
2024/04/16 18:35:09;;;;;;;0.00;0.00;;;;;;;8.06;71.51;99770.38;16683643;26;20000;-53
2024/04/16 18:42:46;;;;;;;0.10;0.10;;;;;;;8.75;70.46;99783.78;16638156;26;20011;-54
2024/04/16 18:50:21;;;;;;;0.10;0.10;;;;;;;8.52;72.20;99793.25;16688583;26;20576;-51
2024/04/16 18:57:59;;;;;;;0.00;0.00;;;;;;;8.23;72.58;99794.72;16675290;26;20004;-53
2024/04/16 19:05:34;;;;;;;0.00;0.00;;;;;;;7.74;71.51;99799.00;16684130;26;20247;-54
2024/04/16 19:13:12;;;;;;;0.00;0.00;;;;;;;7.36;71.11;99805.13;16683713;26;20000;-51
2024/04/16 19:20:47;;;;;;;0.00;0.00;;;;;;;7.50;70.67;99829.09;16684324;26;20018;-51
2024/04/16 19:28:25;;;;;;;0.00;0.00;;;;;;;7.82;69.57;99829.94;16680247;26;20148;-55
2024/04/16 19:36:02;;;;;;;0.00;0.00;;;;;;;7.97;69.61;99845.69;16683235;26;20004;-52
2024/04/16 19:43:42;;;;;;;0.45;0.45;;;;;;;8.29;69.41;99849.16;16681508;26;20477;-53
2024/04/16 19:51:17;;;;;;;0.10;0.10;;;;;;;7.94;69.57;99854.97;16682340;26;20008;-51
2024/04/16 19:58:56;;;;;;;0.95;0.90;;;;;;;7.88;69.13;99866.50;16681071;26;20863;-54
2024/04/16 20:06:33;;;;;;;0.00;0.00;;;;;;;7.72;68.69;99877.69;16689153;26;20000;-53
2024/04/16 20:14:10;;;;;;;0.00;0.00;;;;;;;7.75;68.01;99888.78;16701870;26;20008;-51
2024/04/16 20:21:47;;;;;;;0.00;0.00;;;;;;;7.66;67.44;99906.06;16598787;26;20005;-54
2024/04/16 20:29:25;;;;;;;0.00;0.00;;;;;;;7.05;68.42;99906.44;16595808;26;20001;-55
2024/04/16 20:37:00;;;;;;;0.00;0.00;;;;;;;7.47;67.39;99921.13;16590073;26;20372;-56
2024/04/16 20:44:39;;;;;;;0.00;0.00;;;;;;;6.97;69.80;99923.47;16589209;26;20001;-54
2024/04/16 20:52:14;;;;;;;0.00;0.00;;;;;;;7.08;69.56;99928.16;16592131;26;20303;-50
2024/04/16 20:59:52;;;;;;;0.00;0.00;;;;;;;7.13;69.07;99930.22;16591537;26;20495;-53
2024/04/16 21:07:27;;;;;;;0.00;0.00;;;;;;;6.97;70.09;99938.66;16572158;26;20482;-54
2024/04/16 21:15:05;;;;;;;0.00;0.00;;;;;;;6.46;71.78;99936.59;16589099;26;20012;-53
2024/04/16 21:22:41;;;;;;;0.00;0.00;;;;;;;6.68;70.53;99942.56;16678270;26;20007;-51
2024/04/16 21:30:19;;;;;;;0.15;0.10;;;;;;;6.23;71.75;99959.09;16687603;26;20422;-50
2024/04/16 21:37:56;;;;;;;0.00;0.00;;;;;;;6.53;70.20;99945.44;16687151;26;20053;-51
2024/04/16 21:45:35;;;;;;;0.15;0.15;;;;;;;6.23;71.58;99944.94;16687427;26;20073;-51
2024/04/16 21:53:10;;;;;;;0.00;0.00;;;;;;;6.19;72.80;99959.69;16686791;26;20053;-50
2024/04/16 22:00:48;;;;;;;0.05;0.05;;;;;;;6.20;73.48;99967.50;16687667;26;20019;-48
2024/04/16 22:08:37;;;;;;;0.20;0.20;;;;;;;6.05;73.77;99975.63;16685997;26;20340;-50
2024/04/16 22:16:15;;;;;;;0.00;0.00;;;;;;;6.19;72.65;99976.50;16685743;26;20095;-50
2024/04/16 22:24:08;;;;;;;0.00;0.00;;;;;;;6.05;73.05;99985.47;16685453;26;20076;-50
2024/04/16 22:32:04;;;;;;;;;;;;;;;6.03;72.49;99999.00;16649542;26;20019;-50
2024/04/16 22:39:53;;;;;;;0.00;0.00;;;;;;;6.24;71.83;100015.88;16681971;26;20364;-51
2024/04/16 22:47:48;;;;;;;0.00;0.00;;;;;;;6.03;72.64;100022.97;16686242;26;20468;-50
2024/04/16 22:55:26;;;;;;;0.00;0.00;;;;;;;6.04;71.88;100031.78;16657191;26;20326;-49
2024/04/16 23:03:04;;;;;;;0.00;0.00;;;;;;;5.39;73.83;100039.16;16685456;26;20000;-52
2024/04/16 23:10:40;;;;;;;0.38;0.38;;;;;;;5.12;75.38;100046.09;16685365;26;20000;-51
2024/04/16 23:18:18;;;;;;;0.00;0.00;;;;;;;5.43;73.81;100051.06;16684642;26;20015;-51
2024/04/16 23:25:53;;;;;;;0.00;0.00;;;;;;;5.41;73.69;100049.59;16685737;26;20008;-50
2024/04/16 23:33:30;;;;;;;0.00;0.00;;;;;;;5.37;72.88;100062.47;16671406;26;20000;-49
2024/04/16 23:41:07;;;;;;;0.00;0.00;;;;;;;5.36;73.15;100061.66;16658411;26;20142;-51
2024/04/16 23:48:46;;;;;;;0.00;0.00;;;;;;;5.35;73.27;100067.16;16693949;26;20011;-50
2024/04/16 23:56:22;;;;;;;0.00;0.00;;;;;;;4.89;74.21;100067.56;16692215;26;20393;-50
